Terminal Aerodrome Forecast
Issued by NWS Nashville, TN

Home | Current Version | Previous Version | Text Only | Print | Product List | Glossary On
Versions: 1 2 3 4 5 6 7 8 9 10 11 12 13 14 15 16 17 18
000
FTUS44 KOHX 240520
TAFCSV
TAF
KCSV 240520Z 2406/2506 26003KT 6SM BR VCSH BKN110
     FM240900 00000KT 2SM BR SCT007 BKN120
     FM241300 28005KT P6SM BKN250=

USA.gov is the U.S. government's official web portal to all federal, state and local government web resources and services.